createdAt,value
2022-11-06T00:03:23.100Z,98723.7
2022-11-06T00:08:58.507Z,98720.6
2022-11-06T00:14:33.391Z,98704.7
2022-11-06T00:20:09.124Z,98699.2
2022-11-06T00:25:44.143Z,98690.7
2022-11-06T00:31:19.283Z,98683.5
2022-11-06T00:36:54.792Z,98672.5
2022-11-06T00:42:29.618Z,98660.1
2022-11-06T00:48:26.589Z,98649.1
2022-11-06T00:54:00.206Z,98639.9
2022-11-06T00:59:35.540Z,98625.6
2022-11-06T01:05:11.270Z,98620.5
2022-11-06T01:10:46.643Z,98615.8
2022-11-06T01:16:21.482Z,98611.5
2022-11-06T01:21:57.460Z,98608
2022-11-06T01:27:32.490Z,98610.5
2022-11-06T01:33:07.780Z,98606.6
2022-11-06T01:38:42.856Z,98607.6
2022-11-06T01:44:17.820Z,98604.5
2022-11-06T01:49:53.052Z,98600.3
2022-11-06T01:55:28.085Z,98594.5
2022-11-06T02:01:03.336Z,98589.7
2022-11-06T02:06:39.101Z,98588.1
2022-11-06T02:12:15.298Z,98580.2
2022-11-06T02:17:50.331Z,98574.6
2022-11-06T02:23:25.931Z,98566.4
2022-11-06T02:29:00.995Z,98560.3
2022-11-06T02:34:35.976Z,98549.6
2022-11-06T02:40:10.864Z,98538.1
2022-11-06T02:45:45.940Z,98527.1
2022-11-06T02:51:21.471Z,98516.1
2022-11-06T02:56:56.319Z,98511.6
2022-11-06T03:02:32.466Z,98492.9
2022-11-06T03:08:09.167Z,98479.6
2022-11-06T03:13:45.408Z,98468.9
2022-11-06T03:19:20.485Z,98461.6
2022-11-06T03:24:55.338Z,98451.8
2022-11-06T03:30:30.067Z,98447.3
2022-11-06T03:36:04.819Z,98445.7
2022-11-06T03:41:40.032Z,98447.6
2022-11-06T03:47:36.530Z,98446.7
2022-11-06T03:53:09.979Z,98446
2022-11-06T03:58:45.449Z,98443
2022-11-06T04:04:21.036Z,98437.8
2022-11-06T04:09:55.990Z,98442.1
2022-11-06T04:15:30.897Z,98438.4
2022-11-06T04:21:05.723Z,98431.2
2022-11-06T04:26:40.957Z,98431
2022-11-06T04:32:16.959Z,98428.6
2022-11-06T04:37:51.714Z,98416.3
2022-11-06T04:43:26.491Z,98411.2
2022-11-06T04:49:23.210Z,98404.7
2022-11-06T04:54:55.725Z,98395.5
2022-11-06T05:00:31.390Z,98387.3
2022-11-06T05:06:08.200Z,98391.4
2022-11-06T05:11:43.086Z,98384.7
2022-11-06T05:17:17.826Z,98381.7
2022-11-06T05:22:53.997Z,98376.9
2022-11-06T05:28:28.721Z,98371.1
2022-11-06T05:34:03.408Z,98375.3
2022-11-06T05:39:42.653Z,98371.2
2022-11-06T05:45:17.952Z,98369.8
2022-11-06T05:50:53.123Z,98363.7
2022-11-06T05:56:28.899Z,98367.9
2022-11-06T06:02:04.684Z,98363.4
2022-11-06T06:07:40.741Z,98360.6
2022-11-06T06:13:15.769Z,98361
2022-11-06T06:18:51.920Z,98354.9
2022-11-06T06:24:27.764Z,98354.8
2022-11-06T06:30:04.300Z,98354.1
2022-11-06T06:35:39.200Z,98352.9
2022-11-06T06:41:14.301Z,98347.1
2022-11-06T06:47:11.798Z,98348.1
2022-11-06T06:52:44.550Z,98356.9
2022-11-06T06:58:22.235Z,98358.2
2022-11-06T07:04:05.281Z,98366.9
2022-11-06T07:09:40.615Z,98367.6
2022-11-06T07:15:15.317Z,98381
2022-11-06T07:20:50.259Z,98388.9
2022-11-06T07:26:25.043Z,98398.6
2022-11-06T07:32:00.041Z,98404.1
2022-11-06T07:37:35.068Z,98407.5
2022-11-06T07:43:09.812Z,98417.4
2022-11-06T07:49:06.625Z,98424.9
2022-11-06T07:54:40.870Z,98419.6
2022-11-06T08:00:15.634Z,98438.9
2022-11-06T08:05:50.533Z,98454.4
2022-11-06T08:11:25.472Z,98461.6
2022-11-06T08:17:00.357Z,98473.7
2022-11-06T08:22:35.447Z,98486.2
2022-11-06T08:28:12.897Z,98495.8
2022-11-06T08:33:51.176Z,98496.9
2022-11-06T08:39:26.187Z,98508.1
2022-11-06T08:45:01.354Z,98510.7
2022-11-06T08:50:36.176Z,98514
2022-11-06T08:56:12.577Z,98518.4
2022-11-06T09:01:48.363Z,98522.4
2022-11-06T09:07:24.998Z,98532.7
2022-11-06T09:12:59.892Z,98545.8
2022-11-06T09:18:36.265Z,98556.8
2022-11-06T09:24:11.308Z,98575
2022-11-06T09:29:46.300Z,98570.1
2022-11-06T09:35:21.637Z,98575.9
2022-11-06T09:41:05.271Z,98578.6
2022-11-06T09:47:02.160Z,98581.1
2022-11-06T09:52:36.725Z,98577.9
2022-11-06T09:58:14.543Z,98577.6
2022-11-06T10:03:51.836Z,98580.8
2022-11-06T10:09:27.004Z,98586.6
2022-11-06T10:15:02.067Z,98583.4
2022-11-06T10:20:37.383Z,98597.4
2022-11-06T10:26:12.635Z,98597
2022-11-06T10:31:47.698Z,98594.2
2022-11-06T10:39:14.621Z,98593.5
2022-11-06T10:44:49.995Z,98590.1
2022-11-06T10:50:25.009Z,98593.3
2022-11-06T10:56:00.896Z,98594.1
2022-11-06T11:01:47.412Z,98604.4
2022-11-06T11:07:24.316Z,98603.3
2022-11-06T11:13:09.143Z,98609.6
2022-11-06T11:18:44.637Z,98604.2
2022-11-06T11:24:20.537Z,98607.5
2022-11-06T11:29:56.395Z,98622.5
2022-11-06T11:35:43.292Z,98623.6
2022-11-06T11:41:21.795Z,98625.1
2022-11-06T11:47:19.076Z,98609.5
2022-11-06T11:52:52.113Z,98602.9
2022-11-06T11:58:26.938Z,98604.7
2022-11-06T12:04:01.997Z,98603.2
2022-11-06T12:09:37.360Z,98597.2
2022-11-06T12:15:12.647Z,98578.8
2022-11-06T12:20:51.918Z,98583.5
2022-11-06T12:26:50.366Z,98582.3
2022-11-06T12:32:57.607Z,98574.1
2022-11-06T12:38:32.762Z,98567.7
2022-11-06T12:44:09.358Z,98567.3
2022-11-06T12:50:31.380Z,98564.8
2022-11-06T12:56:06.992Z,98558.5
2022-11-06T13:01:43.148Z,98566.2
2022-11-06T13:07:19.777Z,98569.6
2022-11-06T13:12:58.500Z,98562.4
2022-11-06T13:18:58.607Z,98563.5
2022-11-06T13:24:37.398Z,98562.9
2022-11-06T13:30:12.769Z,98566.5
2022-11-06T13:36:02.383Z,98574.6
2022-11-06T13:41:45.735Z,98571.4
2022-11-06T13:47:45.031Z,98568.5
2022-11-06T13:53:18.026Z,98573
2022-11-06T13:59:07.006Z,98581.2
2022-11-06T14:04:42.097Z,98582
2022-11-06T14:10:18.510Z,98579.1
2022-11-06T14:15:54.004Z,98591.5
2022-11-06T14:21:30.841Z,98596.9
2022-11-06T14:27:15.852Z,98593.5
2022-11-06T14:33:08.089Z,98595.4
2022-11-06T14:39:13.503Z,98611.8
2022-11-06T14:45:16.465Z,98619.8
2022-11-06T14:50:52.120Z,98622.1
2022-11-06T14:56:29.992Z,98632.4
2022-11-06T15:02:07.145Z,98645.7
2022-11-06T15:08:06.818Z,98653.5
2022-11-06T15:14:06.292Z,98655.7
2022-11-06T15:19:44.412Z,98658.9
2022-11-06T15:25:19.657Z,98664.6
2022-11-06T15:31:04.629Z,98673.7
2022-11-06T15:36:39.435Z,98675.2
2022-11-06T15:42:24.454Z,98679.8
2022-11-06T15:48:25.854Z,98689.9
2022-11-06T15:54:07.768Z,98699
2022-11-06T15:59:43.463Z,98703.5
2022-11-06T16:05:18.246Z,98715.9
2022-11-06T16:10:54.155Z,98714.9
2022-11-06T16:16:32.634Z,98724.1
2022-11-06T16:22:23.975Z,98724.1
2022-11-06T16:27:59.799Z,98731.6
2022-11-06T16:33:37.259Z,98739.4
2022-11-06T16:39:21.750Z,98750.3
2022-11-06T16:45:27.164Z,98752.3
2022-11-06T16:51:24.807Z,98759.7
2022-11-06T16:57:02.595Z,98764.4
2022-11-06T17:02:46.782Z,98767.5
2022-11-06T17:08:23.154Z,98774.6
2022-11-06T17:14:26.192Z,98770.6
2022-11-06T17:20:03.780Z,98783.5
2022-11-06T17:25:42.784Z,98788.1
2022-11-06T17:31:23.228Z,98796.1
2022-11-06T17:36:59.319Z,98802.9
2022-11-06T17:42:35.524Z,98806.4
2022-11-06T17:48:34.321Z,98809.5
2022-11-06T17:54:08.234Z,98819.7
2022-11-06T17:59:45.298Z,98825.3
2022-11-06T18:05:20.454Z,98829.8
2022-11-06T18:10:55.421Z,98832.3
2022-11-06T18:16:30.382Z,98833
2022-11-06T18:22:07.438Z,98834.4
2022-11-06T18:27:42.457Z,98839.4
2022-11-06T18:33:22.283Z,98837.1
2022-11-06T18:38:57.004Z,98839.2
2022-11-06T18:44:32.933Z,98842.9
2022-11-06T18:50:15.130Z,98840.5
2022-11-06T18:55:57.985Z,98843.9
2022-11-06T19:01:35.542Z,98846.4
2022-11-06T19:07:12.279Z,98848
2022-11-06T19:12:47.021Z,98850.7
2022-11-06T19:18:23.056Z,98848.8
2022-11-06T19:24:06.817Z,98849.8
2022-11-06T19:29:42.487Z,98855
2022-11-06T19:35:17.566Z,98871.7
2022-11-06T19:40:52.389Z,98878.4
2022-11-06T19:46:36.715Z,98888
2022-11-06T19:52:53.316Z,98888.3
2022-11-06T19:58:40.204Z,98886.1
2022-11-06T20:04:16.227Z,98888.8
2022-11-06T20:09:51.229Z,98888.7
2022-11-06T20:15:26.844Z,98896.5
2022-11-06T20:21:13.935Z,98902.9
2022-11-06T20:26:49.617Z,98898.2
2022-11-06T20:32:24.661Z,98896.1
2022-11-06T20:37:59.788Z,98900.7
2022-11-06T20:43:35.151Z,98901.1
2022-11-06T20:49:32.163Z,98905.9
2022-11-06T20:55:05.533Z,98901
2022-11-06T21:00:40.728Z,98903.1
2022-11-06T21:06:16.795Z,98903.3
2022-11-06T21:11:52.471Z,98909.9
2022-11-06T21:17:28.323Z,98912.5
2022-11-06T21:23:13.597Z,98913.4
2022-11-06T21:28:50.396Z,98914.9
2022-11-06T21:34:25.315Z,98915.9
2022-11-06T21:40:00.476Z,98914.4
2022-11-06T21:45:36.492Z,98913.8
2022-11-06T21:51:11.717Z,98913.1
2022-11-06T21:56:53.579Z,98907.4
2022-11-06T22:02:29.434Z,98903.4
2022-11-06T22:08:06.301Z,98897.1
2022-11-06T22:13:41.215Z,98898.3
2022-11-06T22:19:16.558Z,98910.2
2022-11-06T22:24:51.676Z,98917.6
2022-11-06T22:30:27.609Z,98920.8
2022-11-06T22:36:02.511Z,98916.2
2022-11-06T22:41:39.107Z,98920.1
2022-11-06T22:47:37.716Z,98925.2
2022-11-06T22:53:15.822Z,98921
2022-11-06T22:58:53.281Z,98925.1
2022-11-06T23:04:28.192Z,98924.1
2022-11-06T23:10:03.060Z,98926.5
2022-11-06T23:15:38.327Z,98922
2022-11-06T23:21:13.170Z,98910.7
2022-11-06T23:26:49.289Z,98907.7
2022-11-06T23:32:25.654Z,98905.5
2022-11-06T23:38:01.357Z,98904.5
2022-11-06T23:43:36.259Z,98905.4
2022-11-06T23:49:33.430Z,98900.3
2022-11-06T23:55:07.128Z,98897.6
